Time;durP1;ratioP1;P1;durP2;ratioP2;P2;SDS_P1;SDS_P2;PMS_P1;PMS_P2;Temp;Humidity;BMP_temperature;BMP_pressure;BME280_temperature;BME280_humidity;BME280_pressure;Samples;Min_cycle;Max_cycle;Signal;HPM_P1;HPM_P2
2021/08/08 00:00:12;;;;;;;1.42;0.30;;;14.50;1.40;;;15.66;100.00;94927.03;646424;212;42283;-72
2021/08/08 00:03:00;;;;;;;1.77;0.50;;;14.60;1.40;;;15.73;100.00;94924.39;645601;212;42047;-74
2021/08/08 00:05:47;;;;;;;0.93;0.40;;;14.60;1.40;;;15.75;100.00;94919.84;648217;216;32475;-73
2021/08/08 00:08:30;;;;;;;1.00;0.40;;;14.70;1.40;;;15.75;100.00;94907.78;647076;212;31555;-73
2021/08/08 00:11:14;;;;;;;1.00;0.60;;;14.60;1.40;;;15.75;100.00;94916.89;648826;212;42496;-73
2021/08/08 00:13:55;;;;;;;0.80;0.30;;;14.50;1.40;;;15.71;100.00;94928.19;646423;213;31521;-73
2021/08/08 00:16:37;;;;;;;0.50;0.40;;;14.60;1.40;;;15.71;100.00;94923.77;646913;216;31513;-72
2021/08/08 00:19:19;;;;;;;1.90;0.40;;;14.70;1.40;;;15.68;100.00;94918.34;645667;212;42159;-74
2021/08/08 00:22:01;;;;;;;1.33;0.40;;;14.60;1.40;;;15.60;100.00;94919.97;646848;212;31520;-73
2021/08/08 00:24:42;;;;;;;1.42;0.40;;;14.50;1.40;;;15.52;100.00;94922.20;646233;212;31528;-72
2021/08/08 00:27:24;;;;;;;2.97;0.50;;;14.50;1.40;;;15.48;100.00;94919.03;646669;216;31556;-72
2021/08/08 00:30:07;;;;;;;1.90;0.57;;;14.40;1.40;;;15.45;100.00;94914.38;619000;222;42955;-73
2021/08/08 00:32:49;;;;;;;3.10;0.50;;;14.30;1.40;;;15.32;100.00;94912.58;646925;216;42148;-72
2021/08/08 00:35:54;;;;;;;1.52;0.40;;;14.20;1.40;;;15.23;100.00;94915.83;647069;212;31535;-72
2021/08/08 00:38:36;;;;;;;2.30;0.90;;;14.10;1.40;;;15.22;100.00;94906.52;646219;212;42545;-73
2021/08/08 00:41:17;;;;;;;1.73;0.40;;;14.10;1.40;;;15.20;100.00;94894.02;646301;212;42119;-72
2021/08/08 00:44:02;;;;;;;2.03;0.30;;;14.10;1.40;;;15.24;100.00;94884.81;619661;222;41086;-73
2021/08/08 00:46:44;;;;;;;1.90;0.50;;;14.10;1.40;;;15.24;100.00;94882.69;645607;212;33436;-72
2021/08/08 00:49:25;;;;;;;2.05;0.50;;;14.10;1.40;;;15.17;100.00;94882.53;645039;212;32405;-73
2021/08/08 00:54:41;;;;;;;1.30;0.40;;;14.10;1.40;;;15.07;100.00;94897.19;646743;212;42114;-72
2021/08/08 00:59:57;;;;;;;1.50;0.40;;;14.10;1.40;;;15.03;100.00;94898.45;648730;216;31497;-71
2021/08/08 01:02:40;;;;;;;1.70;0.70;;;13.90;1.40;;;14.95;100.00;94920.27;646186;216;41962;-72
2021/08/08 01:05:22;;;;;;;2.65;0.77;;;13.80;1.40;;;14.91;100.00;94936.70;647557;212;41194;-73
2021/08/08 01:08:05;;;;;;;0.80;0.50;;;13.80;1.40;;;14.89;100.00;94935.71;643577;214;31583;-72
2021/08/08 01:10:46;;;;;;;3.03;0.55;;;13.90;1.40;;;15.03;100.00;94933.34;646647;212;40843;-72
2021/08/08 01:13:28;;;;;;;1.40;0.50;;;14.20;1.40;;;15.14;100.00;94942.11;645743;216;32143;-72
2021/08/08 01:16:10;;;;;;;3.30;0.73;;;14.30;1.40;;;15.10;100.00;94943.94;647431;212;31661;-72
2021/08/08 01:18:51;;;;;;;2.50;0.60;;;14.20;1.40;;;15.06;100.00;94936.96;646728;212;42237;-72
2021/08/08 01:21:33;;;;;;;2.00;0.50;;;14.00;1.40;;;14.95;100.00;94938.45;647388;216;42152;-73
2021/08/08 01:24:18;;;;;;;1.60;0.40;;;13.90;1.40;;;14.85;100.00;94930.53;648377;212;31930;-73
2021/08/08 01:26:59;;;;;;;0.75;0.50;;;13.80;1.40;;;14.77;100.00;94928.19;647254;212;31606;-72
2021/08/08 01:29:41;;;;;;;2.40;0.50;;;13.90;1.40;;;14.69;100.00;94930.05;647831;212;42529;-72
2021/08/08 01:32:23;;;;;;;2.22;0.60;;;13.90;1.40;;;14.69;100.00;94938.81;647055;216;36804;-72
2021/08/08 01:35:51;;;;;;;0.75;0.45;;;14.00;1.40;;;14.72;100.00;94936.01;647042;216;31462;-72
2021/08/08 01:38:33;;;;;;;1.90;0.60;;;13.90;1.40;;;14.71;100.00;94923.56;647173;216;40025;-71
2021/08/08 01:41:14;;;;;;;1.80;0.43;;;13.90;1.40;;;14.71;100.00;94926.09;612578;226;39272;-71
2021/08/08 01:43:56;;;;;;;2.72;0.90;;;14.00;1.40;;;14.74;100.00;94921.70;646596;216;31544;-72
2021/08/08 01:46:37;;;;;;;0.75;0.45;;;14.10;1.40;;;14.76;100.00;94917.20;619999;222;38515;-72
2021/08/08 01:49:20;;;;;;;1.30;0.50;;;14.10;1.40;;;14.78;100.00;94924.55;646158;212;31807;-72
2021/08/08 01:52:02;;;;;;;0.90;0.50;;;14.10;1.40;;;14.81;100.00;94933.41;647302;212;31529;-72
2021/08/08 01:54:44;;;;;;;1.12;0.60;;;14.10;1.40;;;14.84;100.00;94934.05;646500;212;42717;-72
2021/08/08 01:57:25;;;;;;;1.40;0.50;;;14.00;1.40;;;14.84;100.00;94933.03;646574;216;33550;-71
2021/08/08 02:02:50;;;;;;;1.40;0.60;;;14.00;1.40;;;14.85;100.00;94939.42;646128;212;41459;-72
2021/08/08 02:05:31;;;;;;;0.98;0.50;;;14.00;1.40;;;14.86;100.00;94938.61;646165;212;38795;-72
2021/08/08 02:08:16;;;;;;;2.25;0.60;;;14.10;1.40;;;14.94;100.00;94950.61;646832;216;31528;-72
2021/08/08 02:10:58;;;;;;;1.20;0.47;;;14.10;1.40;;;14.95;100.00;94953.06;646515;216;33713;-72
2021/08/08 02:13:42;;;;;;;0.80;0.70;;;14.10;1.40;;;14.95;100.00;94950.45;619134;222;43163;-73
2021/08/08 02:16:24;;;;;;;1.08;0.80;;;14.10;1.40;;;14.98;100.00;94955.67;645456;212;43038;-72
2021/08/08 02:19:09;;;;;;;1.08;0.60;;;14.20;1.40;;;14.96;100.00;94961.80;646116;216;42126;-72
2021/08/08 02:22:50;;;;;;;2.55;0.57;;;14.10;1.40;;;15.00;100.00;94971.66;646490;213;31550;-73
2021/08/08 02:25:32;;;;;;;1.40;0.50;;;14.20;1.40;;;15.01;100.00;94973.38;618657;222;31854;-72
2021/08/08 02:28:13;;;;;;;1.00;0.60;;;14.20;1.40;;;14.97;100.00;94969.67;646447;212;36565;-72
2021/08/08 02:30:55;;;;;;;1.02;0.50;;;14.10;1.40;;;14.94;100.00;94971.08;646095;212;42111;-72
2021/08/08 02:35:51;;;;;;;1.00;0.40;;;14.10;1.40;;;14.90;100.00;94965.77;647393;216;31549;-72
2021/08/08 02:38:33;;;;;;;1.10;0.40;;;14.00;1.40;;;14.85;100.00;94964.31;620719;226;32531;-71
2021/08/08 02:41:14;;;;;;;3.40;0.50;;;14.00;1.40;;;14.84;100.00;94973.43;637885;212;32238;-72
2021/08/08 02:46:30;;;;;;;0.80;0.50;;;13.90;1.40;;;14.84;100.00;94984.13;618142;226;42804;-73
2021/08/08 02:49:12;;;;;;;1.48;0.57;;;13.90;1.40;;;14.78;100.00;94980.35;648144;212;35462;-72
2021/08/08 02:51:56;;;;;;;2.03;0.70;;;13.80;1.40;;;14.78;100.00;94973.80;647004;216;31570;-72
2021/08/08 02:54:35;;;;;;;1.37;0.60;;;13.80;1.40;;;14.76;100.00;94977.63;646828;212;32124;-72
2021/08/08 02:57:17;;;;;;;1.40;0.80;;;13.90;1.40;;;14.78;100.00;94976.95;646015;216;31573;-72
2021/08/08 02:59:59;;;;;;;2.53;0.50;;;13.90;1.40;;;14.78;100.00;94970.44;644706;212;37439;-71
2021/08/08 03:02:40;;;;;;;1.20;0.80;;;13.90;1.40;;;14.78;100.00;94982.23;646945;216;31800;-72
2021/08/08 03:05:22;;;;;;;1.80;0.60;;;13.80;1.40;;;14.74;100.00;94989.77;646708;216;31523;-72
2021/08/08 03:08:04;;;;;;;1.20;0.57;;;13.80;1.40;;;14.75;100.00;94996.90;647305;212;42100;-73
2021/08/08 03:10:46;;;;;;;1.02;0.60;;;13.90;1.40;;;14.77;100.00;95003.47;645842;216;42211;-73
2021/08/08 03:13:27;;;;;;;1.52;0.55;;;13.90;1.40;;;14.75;100.00;95014.05;645752;216;31497;-72
2021/08/08 03:16:09;;;;;;;3.12;0.45;;;13.90;1.40;;;14.76;100.00;95018.41;645153;216;40114;-72
2021/08/08 03:18:51;;;;;;;2.10;0.60;;;13.90;1.40;;;14.75;100.00;95018.44;619764;222;31874;-72
2021/08/08 03:21:33;;;;;;;1.50;0.40;;;13.90;1.40;;;14.73;100.00;95022.30;646559;212;42278;-71
2021/08/08 03:26:49;;;;;;;1.60;0.50;;;13.80;1.40;;;14.73;100.00;95013.95;646718;216;42143;-72
2021/08/08 03:29:30;;;;;;;1.30;0.62;;;13.80;1.40;;;14.75;100.00;95022.98;645959;212;34007;-72
2021/08/08 03:32:12;;;;;;;1.40;0.50;;;13.80;1.40;;;14.78;100.00;95039.21;646073;216;31520;-73
2021/08/08 03:35:51;;;;;;;1.60;0.70;;;13.90;1.40;;;14.76;100.00;95044.97;646535;212;32087;-71
2021/08/08 03:38:33;;;;;;;1.10;0.53;;;13.80;1.40;;;14.75;100.00;95040.87;646481;212;31971;-71
2021/08/08 03:41:15;;;;;;;4.90;1.05;;;13.80;1.40;;;14.72;100.00;95047.88;637749;212;31954;-72
2021/08/08 03:43:56;;;;;;;2.17;0.50;;;13.80;1.40;;;14.70;100.00;95045.20;646182;212;31512;-71
2021/08/08 03:46:38;;;;;;;3.30;0.70;;;13.80;1.40;;;14.67;100.00;95050.02;645974;212;38075;-72
2021/08/08 03:49:23;;;;;;;0.70;0.50;;;13.70;1.40;;;14.71;100.00;95059.09;645584;213;31559;-72
2021/08/08 03:52:05;;;;;;;3.10;0.75;;;13.70;1.40;;;14.71;100.00;95054.95;646637;216;36516;-72
2021/08/08 03:54:46;;;;;;;1.65;0.50;;;13.70;1.40;;;14.69;100.00;95062.35;646865;212;31732;-72
2021/08/08 03:57:28;;;;;;;1.70;0.50;;;13.70;1.40;;;14.68;100.00;95070.90;645972;212;37394;-73
2021/08/08 04:00:11;;;;;;;1.00;0.50;;;13.70;1.40;;;14.69;100.00;95078.89;647640;212;31608;-72
2021/08/08 04:02:53;;;;;;;1.50;0.60;;;13.70;1.40;;;14.73;100.00;95073.88;646241;212;31521;-71
2021/08/08 04:05:35;;;;;;;2.55;0.70;;;13.70;1.40;;;14.73;100.00;95073.15;646599;212;42134;-72
2021/08/08 04:08:16;;;;;;;1.20;0.52;;;13.70;1.40;;;14.76;100.00;95083.49;646681;216;37755;-72
2021/08/08 04:11:01;;;;;;;2.08;0.60;;;13.70;1.40;;;14.73;100.00;95092.55;647531;216;31552;-71
2021/08/08 04:13:43;;;;;;;1.30;0.50;;;13.70;1.40;;;14.74;100.00;95094.48;647275;212;32099;-72
2021/08/08 04:16:24;;;;;;;2.90;0.50;;;13.80;1.40;;;14.74;100.00;95092.39;645632;216;31615;-70
2021/08/08 04:19:09;;;;;;;2.30;0.60;;;13.80;1.40;;;14.73;100.00;95095.25;646921;216;38993;-71
2021/08/08 04:21:51;;;;;;;1.90;0.60;;;13.70;1.40;;;14.75;100.00;95091.59;646562;212;31544;-71
2021/08/08 04:24:32;;;;;;;2.50;0.70;;;13.70;1.40;;;14.74;100.00;95093.05;647192;213;42109;-71
2021/08/08 04:27:18;;;;;;;1.52;0.62;;;13.70;1.40;;;14.75;100.00;95090.36;619533;226;41864;-71
2021/08/08 04:29:59;;;;;;;2.03;0.50;;;13.70;1.40;;;14.79;100.00;95088.92;645302;216;39529;-71
2021/08/08 04:32:40;;;;;;;1.00;0.70;;;13.70;1.40;;;14.75;100.00;95099.16;645927;216;31754;-72
2021/08/08 04:35:51;;;;;;;2.20;0.60;;;13.60;1.40;;;14.73;100.00;95100.90;641754;216;31660;-70
2021/08/08 04:38:33;;;;;;;1.40;0.60;;;13.60;1.40;;;14.81;100.00;95104.46;646924;216;31792;-72
2021/08/08 04:41:15;;;;;;;2.22;0.70;;;13.50;1.40;;;14.74;100.00;95102.27;646369;216;31598;-72
2021/08/08 04:43:59;;;;;;;2.20;0.52;;;13.60;1.40;;;14.79;100.00;95107.22;646312;216;33455;-73
2021/08/08 04:46:41;;;;;;;1.60;0.70;;;13.70;1.40;;;14.93;100.00;95113.81;647402;212;31568;-72
2021/08/08 04:49:23;;;;;;;1.50;0.90;;;13.80;1.40;;;14.98;100.00;95117.59;645730;216;31502;-73
2021/08/08 04:52:07;;;;;;;3.40;0.85;;;13.90;1.40;;;15.09;100.00;95113.83;618708;226;32472;-71
2021/08/08 04:54:48;;;;;;;1.80;0.75;;;14.00;1.40;;;15.26;100.00;95113.95;646731;216;31591;-72
2021/08/08 04:57:33;;;;;;;1.98;0.60;;;14.00;1.40;;;15.37;100.00;95112.20;616432;226;31879;-72
2021/08/08 05:00:16;;;;;;;2.83;0.90;;;14.10;1.40;;;15.38;100.00;95109.63;645055;212;43028;-72
2021/08/08 05:02:57;;;;;;;1.30;0.68;;;14.10;1.40;;;15.49;100.00;95103.30;646051;216;40910;-71
2021/08/08 05:05:38;;;;;;;1.70;0.90;;;14.20;1.40;;;15.57;100.00;95106.55;646819;212;31523;-72
2021/08/08 05:08:20;;;;;;;1.23;0.82;;;14.20;1.40;;;15.62;100.00;95103.90;618795;226;31867;-71
2021/08/08 05:11:02;;;;;;;2.20;0.85;;;14.20;1.40;;;15.73;100.00;95107.73;645920;212;31540;-71
2021/08/08 05:13:43;;;;;;;1.30;0.60;;;14.40;1.40;;;15.86;100.00;95113.13;646943;212;31564;-71
2021/08/08 05:16:25;;;;;;;0.90;0.60;;;14.40;1.40;;;15.81;100.00;95122.66;619149;226;31880;-71
2021/08/08 05:19:07;;;;;;;0.80;0.60;;;14.50;1.40;;;15.83;100.00;95122.67;645484;216;32162;-72
2021/08/08 05:21:48;;;;;;;1.05;0.57;;;14.50;1.40;;;16.03;100.00;95125.65;644610;216;32083;-71
2021/08/08 05:24:30;;;;;;;1.00;0.60;;;14.60;1.40;;;16.22;100.00;95127.90;647238;212;31502;-72
2021/08/08 05:27:12;;;;;;;1.27;1.17;;;14.60;1.40;;;16.09;100.00;95130.36;647769;216;42253;-71
2021/08/08 05:29:54;;;;;;;1.75;0.70;;;14.60;1.40;;;16.42;100.00;95134.70;645461;212;31578;-72
2021/08/08 05:32:36;;;;;;;1.33;0.80;;;14.70;1.40;;;16.45;100.00;95136.28;646853;216;31650;-72
2021/08/08 05:37:43;;;;;;;1.37;0.60;;;14.70;1.40;;;16.05;100.00;95136.36;645622;212;31557;-71
2021/08/08 05:40:25;;;;;;;1.40;0.60;;;14.70;1.40;;;16.14;100.00;95133.05;641800;216;31838;-72
2021/08/08 05:43:09;;;;;;;1.70;0.80;;;14.70;1.40;;;16.36;100.00;95134.59;647528;216;31521;-72
2021/08/08 05:45:51;;;;;;;1.80;0.68;;;14.80;1.40;;;16.38;100.00;95133.66;645214;216;31528;-71
2021/08/08 05:48:33;;;;;;;1.75;0.65;;;14.90;1.40;;;16.37;100.00;95131.07;647785;212;31497;-71
2021/08/08 05:51:14;;;;;;;1.42;0.90;;;14.90;1.40;;;16.32;100.00;95130.45;645594;216;31520;-71
2021/08/08 05:53:56;;;;;;;1.20;0.70;;;15.00;1.40;;;16.43;100.00;95140.30;647323;212;31738;-72
2021/08/08 05:56:41;;;;;;;1.10;0.62;;;15.00;1.40;;;16.49;100.00;95139.74;647999;216;31578;-72
2021/08/08 05:59:22;;;;;;;1.42;0.60;;;15.10;1.40;;;16.36;100.00;95141.66;647206;216;31553;-72
2021/08/08 06:02:04;;;;;;;1.65;0.80;;;15.00;1.40;;;16.55;100.00;95138.11;646282;216;31477;-72
2021/08/08 06:04:49;;;;;;;1.33;0.62;;;15.20;1.40;;;16.64;100.00;95144.09;645957;212;31583;-71
2021/08/08 06:07:31;;;;;;;1.12;0.60;;;15.20;1.40;;;16.63;100.00;95145.36;646301;212;31534;-72
2021/08/08 06:10:13;;;;;;;1.00;0.50;;;15.30;1.40;;;16.52;100.00;95141.27;620061;224;31822;-72
2021/08/08 06:12:54;;;;;;;1.80;0.40;;;15.30;1.40;;;16.47;100.00;95145.77;646016;216;31535;-71
2021/08/08 06:15:36;;;;;;;1.30;0.70;;;15.30;1.40;;;16.50;100.00;95157.16;647539;212;31503;-71
2021/08/08 06:18:21;;;;;;;0.80;0.40;;;15.30;1.40;;;16.47;100.00;95150.66;646255;216;31487;-71
2021/08/08 06:21:03;;;;;;;1.05;0.60;;;15.30;1.40;;;16.43;100.00;95154.83;646219;212;31871;-72
2021/08/08 06:23:45;;;;;;;0.90;0.60;;;15.30;1.40;;;16.51;100.00;95155.76;646024;216;31524;-71
2021/08/08 06:26:26;;;;;;;0.60;0.50;;;15.30;1.40;;;16.44;100.00;95153.59;645873;216;31500;-72
2021/08/08 06:29:08;;;;;;;1.70;0.65;;;15.30;1.40;;;16.47;100.00;95153.56;646571;212;31495;-72
2021/08/08 06:31:49;;;;;;;1.00;0.60;;;15.30;1.40;;;16.56;100.00;95158.44;645807;212;32848;-71
2021/08/08 06:35:53;;;;;;;0.60;0.50;;;15.40;1.40;;;16.98;100.00;95160.58;645660;216;31548;-71
2021/08/08 06:38:33;;;;;;;1.33;0.60;;;15.50;1.40;;;17.01;100.00;95160.67;646695;216;31551;-72
2021/08/08 06:41:18;;;;;;;1.70;0.50;;;15.70;1.40;;;17.22;100.00;95161.31;636944;216;31768;-72
2021/08/08 06:43:59;;;;;;;2.00;0.60;;;15.70;1.40;;;17.06;100.00;95164.62;646573;216;31582;-71
2021/08/08 06:46:41;;;;;;;2.00;0.50;;;15.70;1.40;;;17.09;100.00;95164.09;645620;212;31491;-73
2021/08/08 06:49:23;;;;;;;14.02;12.05;;;15.70;1.40;;;17.00;100.00;95163.63;646449;216;31504;-72
2021/08/08 06:52:05;;;;;;;7.75;6.95;;;15.70;1.40;;;16.87;100.00;95164.39;645243;216;31615;-71
2021/08/08 06:54:46;;;;;;;3.05;2.28;;;15.70;1.40;;;17.02;100.00;95165.27;646621;212;31597;-72
2021/08/08 06:57:28;;;;;;;3.40;3.10;;;15.80;1.40;;;17.10;100.00;95166.23;647361;216;31553;-73
2021/08/08 07:00:10;;;;;;;1.85;1.60;;;15.80;1.40;;;17.28;100.00;95172.50;620207;222;31887;-73
2021/08/08 07:02:52;;;;;;;1.50;0.90;;;15.90;1.40;;;17.54;100.00;95178.41;645054;213;31529;-72
2021/08/08 07:05:33;;;;;;;1.33;0.80;;;16.00;1.40;;;17.25;100.00;95182.61;619480;225;31836;-72
2021/08/08 07:08:15;;;;;;;1.30;0.70;;;16.00;1.40;;;17.32;100.00;95180.75;615593;225;32291;-71
2021/08/08 07:10:57;;;;;;;0.80;0.70;;;15.90;1.40;;;17.55;100.00;95186.77;646074;212;31552;-71
2021/08/08 07:13:39;;;;;;;1.10;0.60;;;16.00;1.40;;;17.41;100.00;95186.92;647505;216;31494;-73
2021/08/08 07:16:20;;;;;;;1.50;0.70;;;16.00;1.40;;;17.45;100.00;95189.40;647579;212;31535;-71
2021/08/08 07:19:02;;;;;;;1.60;0.70;;;16.00;1.40;;;17.67;100.00;95185.02;646524;216;31718;-72
2021/08/08 07:21:44;;;;;;;1.42;0.80;;;16.20;1.40;;;17.74;100.00;95187.19;646233;212;31509;-72
2021/08/08 07:24:30;;;;;;;4.65;0.90;;;16.20;1.40;;;17.58;100.00;95188.12;646213;216;31683;-72
2021/08/08 07:29:46;;;;;;;0.70;0.50;;;16.20;1.40;;;17.65;100.00;95188.53;646305;216;31486;-72
2021/08/08 07:32:28;;;;;;;0.88;0.70;;;16.20;1.40;;;18.03;100.00;95186.53;645603;212;31564;-72
2021/08/08 07:35:56;;;;;;;1.90;0.75;;;16.70;1.40;;;18.38;100.00;95189.98;599922;233;32302;-72
2021/08/08 07:38:37;;;;;;;1.60;0.65;;;16.80;1.40;;;18.68;100.00;95184.11;645039;216;31528;-72
2021/08/08 07:41:19;;;;;;;2.60;0.90;;;16.90;1.40;;;18.98;100.00;95186.96;636529;212;32137;-72
2021/08/08 07:44:01;;;;;;;1.45;0.80;;;17.10;1.40;;;18.80;100.00;95186.48;646228;216;31484;-72
2021/08/08 07:46:42;;;;;;;1.10;0.60;;;17.00;1.40;;;18.83;100.00;95192.07;618752;222;31820;-73
2021/08/08 07:49:24;;;;;;;1.30;0.80;;;17.10;1.40;;;18.58;100.00;95190.31;645786;212;31479;-72
2021/08/08 07:52:06;;;;;;;1.20;0.70;;;16.90;1.40;;;18.15;99.31;95186.79;619023;226;31828;-73
2021/08/08 07:54:48;;;;;;;1.25;0.70;;;16.70;1.40;;;18.53;99.12;95192.47;645921;216;31497;-72
2021/08/08 07:57:29;;;;;;;1.10;0.70;;;16.90;1.40;;;19.03;95.62;95189.33;646987;213;31482;-72
2021/08/08 08:00:11;;;;;;;1.62;0.68;;;17.30;1.40;;;19.05;94.48;95189.44;646441;216;31684;-72
2021/08/08 08:02:53;;;;;;;1.50;0.80;;;17.30;1.40;;;18.72;94.42;95185.63;646566;216;31576;-72
2021/08/08 08:05:39;;;;;;;1.40;0.80;;;17.20;1.40;;;19.28;93.63;95189.17;646690;212;31478;-71
2021/08/08 08:08:19;;;;;;;1.60;0.75;;;17.50;1.40;;;19.00;90.75;95186.53;646514;216;31686;-72
2021/08/08 08:11:01;;;;;;;1.30;0.70;;;17.50;1.40;;;19.19;90.11;95185.43;617554;226;31856;-71
2021/08/08 08:13:43;;;;;;;1.70;0.73;;;17.70;1.40;;;19.47;92.40;95187.92;646806;216;31814;-72
2021/08/08 08:16:24;;;;;;;1.10;0.70;;;17.80;1.40;;;19.44;90.09;95190.04;646389;216;31585;-72
2021/08/08 08:19:06;;;;;;;2.47;0.77;;;17.80;1.40;;;19.87;89.73;95196.53;646231;216;31680;-72
2021/08/08 08:21:48;;;;;;;1.30;0.70;;;18.10;1.40;;;19.43;86.37;95200.28;618614;226;32126;-72
2021/08/08 08:24:30;;;;;;;2.00;0.95;;;17.90;1.40;;;19.17;89.57;95203.17;647646;216;31520;-72
2021/08/08 08:27:11;;;;;;;1.30;0.60;;;17.80;1.40;;;19.15;91.45;95210.41;646703;216;32258;-72
2021/08/08 08:29:53;;;;;;;1.60;0.80;;;17.70;1.40;;;19.43;91.45;95213.36;646030;216;31535;-71
2021/08/08 08:32:35;;;;;;;1.98;0.93;;;17.80;1.40;;;19.06;89.67;95217.27;618381;226;32357;-71
2021/08/08 08:35:52;;;;;;;2.60;0.70;;;17.60;1.40;;;19.69;93.41;95214.84;646044;216;31544;-72
2021/08/08 08:38:33;;;;;;;2.20;0.80;;;18.20;1.40;;;19.55;88.38;95213.25;647052;212;42148;-71
2021/08/08 08:41:15;;;;;;;1.90;0.70;;;18.10;1.40;;;19.63;89.84;95215.30;636565;212;31636;-71
2021/08/08 08:43:58;;;;;;;2.20;0.80;;;18.10;1.40;;;19.85;85.60;95213.92;646416;212;42182;-71
2021/08/08 08:46:39;;;;;;;1.60;0.70;;;18.30;1.40;;;19.51;88.32;95214.41;632340;217;31736;-71
2021/08/08 08:52:12;;;;;;;1.00;0.55;;;18.20;1.40;;;19.58;86.84;95216.69;645043;216;31522;-72
2021/08/08 08:54:54;;;;;;;1.48;0.60;;;18.00;1.40;;;19.20;86.96;95214.78;617854;222;31818;-72
2021/08/08 08:57:37;;;;;;;1.30;0.70;;;18.00;1.40;;;19.23;88.15;95214.39;644732;216;31873;-72
2021/08/08 09:00:23;;;;;;;2.00;0.70;;;18.00;1.40;;;19.34;84.77;95216.42;647205;213;31505;-71
2021/08/08 09:03:03;;;;;;;1.62;0.60;;;18.00;1.40;;;19.90;86.29;95212.84;646950;212;31496;-72
2021/08/08 09:05:44;;;;;;;1.33;0.70;;;18.30;1.40;;;19.82;83.50;95211.27;646782;212;32121;-71
2021/08/08 09:08:26;;;;;;;1.62;0.70;;;18.40;1.40;;;19.75;84.34;95207.77;646607;216;31629;-71
2021/08/08 09:11:08;;;;;;;1.00;0.50;;;18.40;1.40;;;19.54;83.94;95207.64;645592;212;32051;-72
2021/08/08 09:13:52;;;;;;;0.80;0.50;;;18.50;1.40;;;20.05;87.19;95203.30;645031;213;42265;-72
2021/08/08 09:16:36;;;;;;;2.08;0.80;;;19.00;1.40;;;20.52;79.16;95208.02;646000;212;32174;-71
2021/08/08 09:19:19;;;;;;;1.80;0.62;;;19.30;1.40;;;20.70;78.16;95201.98;646607;216;42138;-71
2021/08/08 09:22:01;;;;;;;1.00;0.70;;;19.70;1.40;;;20.60;78.57;95205.66;646422;212;31510;-70
2021/08/08 09:24:44;;;;;;;1.05;0.75;;;19.50;1.40;;;21.34;76.19;95197.13;646204;216;31508;-70
2021/08/08 09:27:34;;;;;;;1.60;0.70;;;20.10;1.40;;;21.48;74.26;95197.17;646236;212;31471;-70
2021/08/08 09:30:19;;;;;;;1.60;0.80;;;20.60;1.40;;;22.04;71.68;95204.49;645974;216;31544;-70
2021/08/08 09:35:54;;;;;;;1.10;0.50;;;20.80;1.40;;;22.40;68.69;95205.23;647121;216;31598;-71
2021/08/08 09:38:36;;;;;;;1.20;0.88;;;21.90;1.40;;;23.84;65.75;95215.49;647391;216;31479;-71
2021/08/08 09:41:23;;;;;;;1.10;0.60;;;21.50;1.40;;;23.78;63.72;95209.70;631032;214;31707;-71
2021/08/08 09:44:06;;;;;;;1.10;0.90;;;21.90;1.40;;;22.39;66.62;95213.08;646338;212;32120;-70
2021/08/08 09:46:47;;;;;;;1.40;0.80;;;20.80;1.40;;;22.92;66.38;95210.28;646888;212;42921;-70
2021/08/08 09:49:35;;;;;;;1.20;0.70;;;21.80;1.40;;;23.64;64.63;95215.25;646594;216;42131;-72
2021/08/08 09:52:21;;;;;;;1.65;0.57;;;21.80;1.40;;;23.80;63.78;95219.98;646909;216;31495;-71
2021/08/08 09:55:04;;;;;;;1.00;0.70;;;21.60;1.40;;;22.70;66.40;95221.55;646686;216;31680;-70
2021/08/08 09:57:46;;;;;;;1.10;0.50;;;20.70;1.40;;;22.06;63.44;95228.42;645263;212;33159;-71
2021/08/08 10:00:38;;;;;;;2.40;0.50;;;20.40;1.40;;;22.27;64.73;95220.59;646153;214;42108;-70
2021/08/08 10:03:19;;;;;;;1.90;0.50;;;21.20;1.40;;;22.33;62.28;95228.30;647254;216;32087;-71
2021/08/08 10:06:01;;;;;;;0.95;0.65;;;20.40;1.40;;;21.48;67.90;95228.86;647237;212;42623;-70
2021/08/08 10:08:42;;;;;;;1.42;0.50;;;20.20;1.40;;;21.85;65.92;95233.02;646630;216;32062;-70
2021/08/08 10:11:30;;;;;;;1.10;0.55;;;20.20;1.40;;;21.19;69.47;95231.73;646911;216;31474;-72
2021/08/08 10:14:19;;;;;;;1.25;0.62;;;19.70;1.40;;;21.21;71.57;95238.41;644862;216;32020;-71
2021/08/08 10:17:00;;;;;;;0.68;0.50;;;19.60;1.40;;;20.95;73.05;95237.31;646241;216;32241;-71
2021/08/08 10:22:16;;;;;;;2.20;0.80;;;19.50;1.40;;;20.59;70.65;95240.52;646404;214;31686;-70
2021/08/08 10:24:58;;;;;;;0.80;0.65;;;19.10;1.40;;;21.22;71.96;95237.81;645925;213;31586;-71
2021/08/08 10:27:39;;;;;;;1.60;0.70;;;19.40;1.40;;;21.18;72.99;95236.09;646433;212;32012;-71
2021/08/08 10:30:21;;;;;;;1.10;0.68;;;19.60;1.40;;;21.25;68.91;95232.09;618776;226;31889;-71
2021/08/08 10:35:51;;;;;;;1.90;0.60;;;19.80;1.40;;;21.69;67.88;95234.80;646707;212;31839;-70
2021/08/08 10:38:36;;;;;;;1.87;0.60;;;19.90;1.40;;;21.02;71.41;95234.77;645610;216;31661;-71
2021/08/08 10:41:17;;;;;;;1.00;0.60;;;19.50;1.40;;;21.22;73.22;95230.28;637352;212;31679;-71
2021/08/08 10:44:05;;;;;;;1.30;0.60;;;19.80;1.40;;;21.18;67.62;95226.30;645653;216;31568;-71
2021/08/08 10:46:50;;;;;;;1.55;0.50;;;19.70;1.40;;;21.16;68.31;95218.30;646093;213;31510;-72
2021/08/08 10:49:33;;;;;;;0.98;0.50;;;19.90;1.40;;;21.40;67.76;95216.56;646667;212;31640;-73
2021/08/08 10:54:05;;;;;;;1.10;0.70;;;20.30;1.40;;;22.11;67.44;95207.63;645745;216;31616;-72
2021/08/08 10:56:47;;;;;;;0.77;0.60;;;20.80;1.40;;;22.69;64.97;95209.89;646025;216;31629;-73
2021/08/08 10:59:29;;;;;;;1.17;0.50;;;21.00;1.40;;;23.40;57.75;95205.75;646610;212;32011;-71
2021/08/08 11:02:11;;;;;;;1.25;0.60;;;21.60;1.40;;;23.53;60.26;95206.68;645334;216;31536;-71
2021/08/08 11:04:53;;;;;;;1.30;0.65;;;21.40;1.40;;;22.96;59.18;95207.05;645283;213;31540;-71
2021/08/08 11:07:34;;;;;;;1.30;0.80;;;21.10;1.40;;;23.13;59.89;95208.74;647411;216;31475;-71
2021/08/08 11:10:25;;;;;;;1.50;0.40;;;21.00;1.40;;;22.55;58.67;95210.04;646411;216;31535;-71
2021/08/08 11:13:30;;;;;;;1.10;0.50;;;20.80;1.40;;;22.57;59.87;95208.47;645736;216;32310;-71
2021/08/08 11:16:13;;;;;;;0.80;0.60;;;20.70;1.40;;;24.35;54.59;95195.36;646195;212;31496;-70
2021/08/08 11:18:55;;;;;;;1.60;0.50;;;22.50;1.40;;;25.43;51.81;95187.95;647063;216;31557;-71
2021/08/08 11:21:37;;;;;;;1.00;0.40;;;22.80;1.40;;;26.69;45.56;95186.66;648125;216;42249;-71
2021/08/08 11:24:18;;;;;;;1.90;0.60;;;24.50;1.40;;;25.80;47.13;95193.00;645833;216;31722;-70
2021/08/08 11:27:00;;;;;;;1.55;0.57;;;23.70;1.40;;;27.23;43.17;95194.66;647238;216;31612;-71
2021/08/08 11:29:45;;;;;;;1.02;0.43;;;24.00;1.40;;;27.03;42.75;95199.19;645700;216;31656;-70
2021/08/08 11:32:28;;;;;;;1.70;0.50;;;23.20;1.40;;;25.43;46.79;95203.32;645879;212;31681;-71
2021/08/08 11:35:51;;;;;;;1.20;0.70;;;21.70;1.40;;;22.89;53.42;95210.12;646598;212;31548;-70
2021/08/08 11:38:34;;;;;;;1.27;0.60;;;20.50;1.40;;;22.97;54.62;95211.91;646221;216;31549;-71
2021/08/08 11:41:21;;;;;;;0.98;0.50;;;20.50;1.40;;;22.16;57.70;95214.91;635841;212;31739;-71
2021/08/08 11:44:07;;;;;;;1.10;0.60;;;20.10;1.40;;;22.44;58.32;95212.81;630553;221;32578;-71
2021/08/08 11:46:48;;;;;;;1.10;0.50;;;20.30;1.40;;;21.61;58.49;95216.75;645791;216;31641;-71
2021/08/08 11:49:45;;;;;;;1.50;0.80;;;19.60;1.40;;;21.20;58.58;95227.05;616438;227;31999;-70
2021/08/08 11:52:26;;;;;;;3.25;0.68;;;19.20;1.40;;;20.74;59.93;95232.31;647214;212;31512;-71
2021/08/08 11:55:12;;;;;;;1.45;0.60;;;19.00;1.40;;;20.61;59.40;95240.66;647083;216;31668;-70
2021/08/08 11:57:54;;;;;;;1.30;0.50;;;18.90;1.40;;;20.28;61.91;95244.77;646284;215;31684;-71
2021/08/08 12:00:36;;;;;;;1.10;0.50;;;18.70;1.40;;;19.98;67.43;95252.36;646457;216;32080;-71
2021/08/08 12:03:21;;;;;;;1.50;0.77;;;18.60;1.40;;;19.65;67.60;95250.93;645857;216;31492;-71
2021/08/08 12:06:02;;;;;;;1.90;0.60;;;18.40;1.40;;;19.45;68.51;95255.42;647026;212;31568;-71